sensor_id;sensor_type;location;lat;lon;timestamp;P1;durP1;ratioP1;P2;durP2;ratioP2
3068;SDS011;1545;51.728;8.796;2023-07-09T00:00:59;16.67;;;10.03;;
3068;SDS011;1545;51.728;8.796;2023-07-09T00:03:24;15.80;;;10.00;;
3068;SDS011;1545;51.728;8.796;2023-07-09T00:05:50;19.53;;;10.37;;
3068;SDS011;1545;51.728;8.796;2023-07-09T00:08:22;16.83;;;10.47;;
3068;SDS011;1545;51.728;8.796;2023-07-09T00:10:54;13.90;;;9.87;;
3068;SDS011;1545;51.728;8.796;2023-07-09T00:13:21;16.07;;;10.07;;
3068;SDS011;1545;51.728;8.796;2023-07-09T00:15:47;22.70;;;11.23;;
3068;SDS011;1545;51.728;8.796;2023-07-09T00:18:14;13.93;;;9.93;;
3068;SDS011;1545;51.728;8.796;2023-07-09T00:20:39;14.57;;;10.20;;
3068;SDS011;1545;51.728;8.796;2023-07-09T00:23:08;16.90;;;9.50;;
3068;SDS011;1545;51.728;8.796;2023-07-09T00:25:44;16.93;;;10.83;;
3068;SDS011;1545;51.728;8.796;2023-07-09T00:28:13;16.93;;;10.70;;
3068;SDS011;1545;51.728;8.796;2023-07-09T00:30:40;16.83;;;10.40;;
3068;SDS011;1545;51.728;8.796;2023-07-09T00:33:07;19.50;;;11.17;;
3068;SDS011;1545;51.728;8.796;2023-07-09T00:35:43;17.83;;;11.10;;
3068;SDS011;1545;51.728;8.796;2023-07-09T00:38:14;18.93;;;11.00;;
3068;SDS011;1545;51.728;8.796;2023-07-09T00:41:03;14.93;;;10.20;;
3068;SDS011;1545;51.728;8.796;2023-07-09T00:43:32;13.97;;;9.93;;
3068;SDS011;1545;51.728;8.796;2023-07-09T00:46:14;18.33;;;10.50;;
3068;SDS011;1545;51.728;8.796;2023-07-09T00:48:45;19.67;;;10.57;;
3068;SDS011;1545;51.728;8.796;2023-07-09T00:51:13;25.47;;;11.13;;
3068;SDS011;1545;51.728;8.796;2023-07-09T00:53:41;14.30;;;10.17;;
3068;SDS011;1545;51.728;8.796;2023-07-09T00:56:24;13.50;;;9.50;;
3068;SDS011;1545;51.728;8.796;2023-07-09T00:59:04;16.63;;;11.10;;
3068;SDS011;1545;51.728;8.796;2023-07-09T01:01:32;17.83;;;10.10;;
3068;SDS011;1545;51.728;8.796;2023-07-09T01:03:59;16.13;;;10.50;;
3068;SDS011;1545;51.728;8.796;2023-07-09T01:06:35;14.73;;;10.60;;
3068;SDS011;1545;51.728;8.796;2023-07-09T01:09:08;14.73;;;10.73;;
3068;SDS011;1545;51.728;8.796;2023-07-09T01:11:34;15.70;;;10.50;;
3068;SDS011;1545;51.728;8.796;2023-07-09T01:14:03;23.50;;;10.43;;
3068;SDS011;1545;51.728;8.796;2023-07-09T01:16:32;22.57;;;10.30;;
3068;SDS011;1545;51.728;8.796;2023-07-09T01:19:02;13.47;;;9.90;;
3068;SDS011;1545;51.728;8.796;2023-07-09T01:21:29;16.77;;;10.60;;
3068;SDS011;1545;51.728;8.796;2023-07-09T01:23:56;17.60;;;11.07;;
3068;SDS011;1545;51.728;8.796;2023-07-09T01:26:23;15.70;;;10.97;;
3068;SDS011;1545;51.728;8.796;2023-07-09T01:28:54;22.50;;;11.40;;
3068;SDS011;1545;51.728;8.796;2023-07-09T01:31:20;18.40;;;11.03;;
3068;SDS011;1545;51.728;8.796;2023-07-09T01:33:47;20.03;;;10.60;;
3068;SDS011;1545;51.728;8.796;2023-07-09T01:36:14;21.20;;;10.70;;
3068;SDS011;1545;51.728;8.796;2023-07-09T01:38:42;15.07;;;10.13;;
3068;SDS011;1545;51.728;8.796;2023-07-09T01:41:08;16.03;;;9.90;;
3068;SDS011;1545;51.728;8.796;2023-07-09T01:43:38;16.23;;;10.40;;
3068;SDS011;1545;51.728;8.796;2023-07-09T01:46:04;17.00;;;10.40;;
3068;SDS011;1545;51.728;8.796;2023-07-09T01:48:30;13.17;;;9.70;;
3068;SDS011;1545;51.728;8.796;2023-07-09T01:50:57;19.30;;;10.40;;
3068;SDS011;1545;51.728;8.796;2023-07-09T01:53:24;26.67;;;9.67;;
3068;SDS011;1545;51.728;8.796;2023-07-09T01:55:52;13.73;;;9.60;;
3068;SDS011;1545;51.728;8.796;2023-07-09T01:58:19;16.93;;;9.63;;
3068;SDS011;1545;51.728;8.796;2023-07-09T02:00:49;15.20;;;8.97;;
3068;SDS011;1545;51.728;8.796;2023-07-09T02:03:15;13.83;;;9.50;;
3068;SDS011;1545;51.728;8.796;2023-07-09T02:05:42;17.07;;;9.93;;
3068;SDS011;1545;51.728;8.796;2023-07-09T02:08:08;14.83;;;9.77;;
3068;SDS011;1545;51.728;8.796;2023-07-09T02:10:33;15.30;;;9.50;;
3068;SDS011;1545;51.728;8.796;2023-07-09T02:12:59;17.70;;;9.90;;
3068;SDS011;1545;51.728;8.796;2023-07-09T02:15:24;11.90;;;8.93;;
3068;SDS011;1545;51.728;8.796;2023-07-09T02:17:51;17.47;;;9.80;;
3068;SDS011;1545;51.728;8.796;2023-07-09T02:20:17;15.77;;;9.70;;
3068;SDS011;1545;51.728;8.796;2023-07-09T02:22:44;15.90;;;9.77;;
3068;SDS011;1545;51.728;8.796;2023-07-09T02:25:10;17.57;;;9.23;;
3068;SDS011;1545;51.728;8.796;2023-07-09T02:27:36;16.43;;;9.73;;
3068;SDS011;1545;51.728;8.796;2023-07-09T02:30:02;17.13;;;9.93;;
3068;SDS011;1545;51.728;8.796;2023-07-09T02:32:28;12.63;;;9.27;;
3068;SDS011;1545;51.728;8.796;2023-07-09T02:34:54;17.73;;;10.00;;
3068;SDS011;1545;51.728;8.796;2023-07-09T02:37:21;20.40;;;10.53;;
3068;SDS011;1545;51.728;8.796;2023-07-09T02:39:48;14.07;;;9.77;;
3068;SDS011;1545;51.728;8.796;2023-07-09T02:42:14;17.07;;;10.53;;
3068;SDS011;1545;51.728;8.796;2023-07-09T02:44:42;16.73;;;10.23;;
3068;SDS011;1545;51.728;8.796;2023-07-09T02:47:08;19.20;;;11.07;;
3068;SDS011;1545;51.728;8.796;2023-07-09T02:49:34;16.57;;;10.20;;
3068;SDS011;1545;51.728;8.796;2023-07-09T02:51:59;16.50;;;10.10;;
3068;SDS011;1545;51.728;8.796;2023-07-09T02:54:25;21.87;;;11.07;;
3068;SDS011;1545;51.728;8.796;2023-07-09T02:56:51;15.20;;;10.60;;
3068;SDS011;1545;51.728;8.796;2023-07-09T02:59:16;15.27;;;10.90;;
3068;SDS011;1545;51.728;8.796;2023-07-09T03:01:42;23.70;;;11.43;;
3068;SDS011;1545;51.728;8.796;2023-07-09T03:04:08;15.43;;;10.60;;
3068;SDS011;1545;51.728;8.796;2023-07-09T03:06:34;14.80;;;11.40;;
3068;SDS011;1545;51.728;8.796;2023-07-09T03:09:01;15.00;;;10.73;;
3068;SDS011;1545;51.728;8.796;2023-07-09T03:11:28;16.83;;;10.70;;
3068;SDS011;1545;51.728;8.796;2023-07-09T03:13:55;18.53;;;11.47;;
3068;SDS011;1545;51.728;8.796;2023-07-09T03:16:21;21.33;;;10.93;;
3068;SDS011;1545;51.728;8.796;2023-07-09T03:18:47;18.60;;;10.90;;
3068;SDS011;1545;51.728;8.796;2023-07-09T03:21:12;15.10;;;10.57;;
3068;SDS011;1545;51.728;8.796;2023-07-09T03:23:38;18.93;;;11.00;;
3068;SDS011;1545;51.728;8.796;2023-07-09T03:26:04;16.03;;;10.97;;
3068;SDS011;1545;51.728;8.796;2023-07-09T03:28:30;18.83;;;11.17;;
3068;SDS011;1545;51.728;8.796;2023-07-09T03:30:56;14.83;;;10.47;;
3068;SDS011;1545;51.728;8.796;2023-07-09T03:33:22;14.90;;;10.60;;
3068;SDS011;1545;51.728;8.796;2023-07-09T03:35:49;18.13;;;11.03;;
3068;SDS011;1545;51.728;8.796;2023-07-09T03:38:15;22.10;;;11.10;;
3068;SDS011;1545;51.728;8.796;2023-07-09T03:40:40;23.67;;;11.00;;
3068;SDS011;1545;51.728;8.796;2023-07-09T03:43:06;18.60;;;10.33;;
3068;SDS011;1545;51.728;8.796;2023-07-09T03:45:34;16.27;;;9.83;;
3068;SDS011;1545;51.728;8.796;2023-07-09T03:48:00;14.43;;;10.50;;
3068;SDS011;1545;51.728;8.796;2023-07-09T03:50:26;20.33;;;11.13;;
3068;SDS011;1545;51.728;8.796;2023-07-09T03:52:52;15.80;;;10.47;;
3068;SDS011;1545;51.728;8.796;2023-07-09T03:55:17;14.67;;;10.70;;
3068;SDS011;1545;51.728;8.796;2023-07-09T03:57:43;15.63;;;10.40;;
3068;SDS011;1545;51.728;8.796;2023-07-09T04:00:09;16.40;;;11.17;;
3068;SDS011;1545;51.728;8.796;2023-07-09T04:02:35;16.80;;;10.37;;
3068;SDS011;1545;51.728;8.796;2023-07-09T04:05:01;13.17;;;10.17;;
3068;SDS011;1545;51.728;8.796;2023-07-09T04:07:27;16.20;;;10.73;;
3068;SDS011;1545;51.728;8.796;2023-07-09T04:09:53;13.87;;;10.23;;
3068;SDS011;1545;51.728;8.796;2023-07-09T04:12:19;18.73;;;10.17;;
3068;SDS011;1545;51.728;8.796;2023-07-09T04:14:44;19.47;;;10.10;;
3068;SDS011;1545;51.728;8.796;2023-07-09T04:17:10;15.87;;;10.10;;
3068;SDS011;1545;51.728;8.796;2023-07-09T04:19:35;17.07;;;9.97;;
3068;SDS011;1545;51.728;8.796;2023-07-09T04:22:01;13.97;;;10.13;;
3068;SDS011;1545;51.728;8.796;2023-07-09T04:24:26;13.93;;;10.40;;
3068;SDS011;1545;51.728;8.796;2023-07-09T04:26:52;17.37;;;10.20;;
3068;SDS011;1545;51.728;8.796;2023-07-09T04:29:22;15.80;;;9.80;;
3068;SDS011;1545;51.728;8.796;2023-07-09T04:31:48;12.77;;;9.77;;
3068;SDS011;1545;51.728;8.796;2023-07-09T04:34:14;15.27;;;9.83;;
3068;SDS011;1545;51.728;8.796;2023-07-09T04:36:39;15.70;;;9.30;;
3068;SDS011;1545;51.728;8.796;2023-07-09T04:39:05;14.93;;;9.30;;
3068;SDS011;1545;51.728;8.796;2023-07-09T04:41:31;11.67;;;9.47;;
3068;SDS011;1545;51.728;8.796;2023-07-09T04:43:57;16.30;;;9.53;;
3068;SDS011;1545;51.728;8.796;2023-07-09T04:46:22;18.00;;;9.07;;
3068;SDS011;1545;51.728;8.796;2023-07-09T04:48:48;18.13;;;9.00;;
3068;SDS011;1545;51.728;8.796;2023-07-09T04:51:14;11.05;;;8.30;;
3068;SDS011;1545;51.728;8.796;2023-07-09T04:53:39;12.30;;;8.38;;
3068;SDS011;1545;51.728;8.796;2023-07-09T04:56:05;10.40;;;8.52;;
3068;SDS011;1545;51.728;8.796;2023-07-09T04:58:31;22.25;;;8.77;;
3068;SDS011;1545;51.728;8.796;2023-07-09T05:00:57;11.13;;;8.55;;
3068;SDS011;1545;51.728;8.796;2023-07-09T05:03:23;11.85;;;8.85;;
3068;SDS011;1545;51.728;8.796;2023-07-09T05:05:48;10.90;;;7.93;;
3068;SDS011;1545;51.728;8.796;2023-07-09T05:08:14;14.82;;;8.68;;
3068;SDS011;1545;51.728;8.796;2023-07-09T05:10:42;11.68;;;8.07;;
3068;SDS011;1545;51.728;8.796;2023-07-09T05:13:08;17.38;;;8.38;;
3068;SDS011;1545;51.728;8.796;2023-07-09T05:15:34;11.55;;;8.27;;
3068;SDS011;1545;51.728;8.796;2023-07-09T05:17:59;10.30;;;7.95;;
3068;SDS011;1545;51.728;8.796;2023-07-09T05:20:25;10.13;;;8.27;;
3068;SDS011;1545;51.728;8.796;2023-07-09T05:22:50;12.82;;;8.63;;
3068;SDS011;1545;51.728;8.796;2023-07-09T05:25:16;12.55;;;8.13;;
3068;SDS011;1545;51.728;8.796;2023-07-09T05:27:42;9.63;;;8.05;;
3068;SDS011;1545;51.728;8.796;2023-07-09T05:30:08;11.45;;;8.15;;
3068;SDS011;1545;51.728;8.796;2023-07-09T05:32:33;10.38;;;7.35;;
3068;SDS011;1545;51.728;8.796;2023-07-09T05:35:00;15.07;;;7.72;;
3068;SDS011;1545;51.728;8.796;2023-07-09T05:37:26;18.10;;;7.97;;
3068;SDS011;1545;51.728;8.796;2023-07-09T05:39:51;12.55;;;8.00;;
3068;SDS011;1545;51.728;8.796;2023-07-09T05:42:16;11.07;;;7.60;;
3068;SDS011;1545;51.728;8.796;2023-07-09T05:44:42;13.70;;;7.93;;
3068;SDS011;1545;51.728;8.796;2023-07-09T05:47:08;13.20;;;7.50;;
3068;SDS011;1545;51.728;8.796;2023-07-09T05:49:33;11.10;;;7.53;;
3068;SDS011;1545;51.728;8.796;2023-07-09T05:51:59;16.00;;;7.68;;
3068;SDS011;1545;51.728;8.796;2023-07-09T05:54:24;13.43;;;6.82;;
3068;SDS011;1545;51.728;8.796;2023-07-09T05:56:50;9.60;;;7.28;;
3068;SDS011;1545;51.728;8.796;2023-07-09T05:59:16;9.10;;;7.63;;
3068;SDS011;1545;51.728;8.796;2023-07-09T06:01:41;10.98;;;7.30;;
3068;SDS011;1545;51.728;8.796;2023-07-09T06:04:07;11.10;;;6.78;;
3068;SDS011;1545;51.728;8.796;2023-07-09T06:06:32;15.55;;;6.95;;
3068;SDS011;1545;51.728;8.796;2023-07-09T06:08:58;9.30;;;7.25;;
3068;SDS011;1545;51.728;8.796;2023-07-09T06:11:23;10.82;;;7.13;;
3068;SDS011;1545;51.728;8.796;2023-07-09T06:13:49;14.02;;;6.90;;
3068;SDS011;1545;51.728;8.796;2023-07-09T06:16:15;13.70;;;6.85;;
3068;SDS011;1545;51.728;8.796;2023-07-09T06:18:41;9.93;;;7.00;;
3068;SDS011;1545;51.728;8.796;2023-07-09T06:21:06;10.52;;;7.20;;
3068;SDS011;1545;51.728;8.796;2023-07-09T06:23:34;16.95;;;7.40;;
3068;SDS011;1545;51.728;8.796;2023-07-09T06:25:59;8.23;;;6.78;;
3068;SDS011;1545;51.728;8.796;2023-07-09T06:28:26;10.73;;;6.50;;
3068;SDS011;1545;51.728;8.796;2023-07-09T06:30:54;9.63;;;6.35;;
3068;SDS011;1545;51.728;8.796;2023-07-09T06:33:19;12.25;;;6.40;;
3068;SDS011;1545;51.728;8.796;2023-07-09T06:35:55;10.20;;;6.70;;
3068;SDS011;1545;51.728;8.796;2023-07-09T06:38:23;12.45;;;6.82;;
3068;SDS011;1545;51.728;8.796;2023-07-09T06:40:49;11.35;;;6.60;;
3068;SDS011;1545;51.728;8.796;2023-07-09T06:43:15;12.38;;;6.55;;
3068;SDS011;1545;51.728;8.796;2023-07-09T06:45:51;10.43;;;6.55;;
3068;SDS011;1545;51.728;8.796;2023-07-09T06:48:22;12.60;;;6.88;;
3068;SDS011;1545;51.728;8.796;2023-07-09T06:50:49;12.05;;;6.70;;
3068;SDS011;1545;51.728;8.796;2023-07-09T06:53:14;13.60;;;6.65;;
3068;SDS011;1545;51.728;8.796;2023-07-09T06:55:40;8.82;;;6.72;;
3068;SDS011;1545;51.728;8.796;2023-07-09T06:58:06;8.45;;;6.05;;
3068;SDS011;1545;51.728;8.796;2023-07-09T07:00:33;9.07;;;6.30;;
3068;SDS011;1545;51.728;8.796;2023-07-09T07:03:00;13.68;;;6.05;;
3068;SDS011;1545;51.728;8.796;2023-07-09T07:05:25;9.65;;;6.30;;
3068;SDS011;1545;51.728;8.796;2023-07-09T07:07:51;9.05;;;5.53;;
3068;SDS011;1545;51.728;8.796;2023-07-09T07:10:18;8.20;;;5.80;;
3068;SDS011;1545;51.728;8.796;2023-07-09T07:12:44;12.80;;;6.03;;
3068;SDS011;1545;51.728;8.796;2023-07-09T07:15:12;10.68;;;6.22;;
3068;SDS011;1545;51.728;8.796;2023-07-09T07:17:40;8.88;;;5.82;;
3068;SDS011;1545;51.728;8.796;2023-07-09T07:20:06;10.35;;;6.30;;
3068;SDS011;1545;51.728;8.796;2023-07-09T07:22:33;15.25;;;6.00;;
3068;SDS011;1545;51.728;8.796;2023-07-09T07:24:58;21.88;;;6.20;;
3068;SDS011;1545;51.728;8.796;2023-07-09T07:27:24;10.93;;;5.95;;
3068;SDS011;1545;51.728;8.796;2023-07-09T07:29:49;13.10;;;5.78;;
3068;SDS011;1545;51.728;8.796;2023-07-09T07:32:14;7.55;;;6.00;;
3068;SDS011;1545;51.728;8.796;2023-07-09T07:34:40;11.85;;;5.82;;
3068;SDS011;1545;51.728;8.796;2023-07-09T07:37:06;10.73;;;5.70;;
3068;SDS011;1545;51.728;8.796;2023-07-09T07:39:31;7.50;;;5.72;;
3068;SDS011;1545;51.728;8.796;2023-07-09T07:41:57;11.63;;;5.55;;
3068;SDS011;1545;51.728;8.796;2023-07-09T07:44:22;11.57;;;6.00;;
3068;SDS011;1545;51.728;8.796;2023-07-09T07:46:48;11.70;;;5.75;;
3068;SDS011;1545;51.728;8.796;2023-07-09T07:49:14;10.00;;;5.95;;
3068;SDS011;1545;51.728;8.796;2023-07-09T07:51:40;15.35;;;6.00;;
3068;SDS011;1545;51.728;8.796;2023-07-09T07:54:06;12.68;;;6.07;;
3068;SDS011;1545;51.728;8.796;2023-07-09T07:56:35;17.20;;;6.28;;
3068;SDS011;1545;51.728;8.796;2023-07-09T07:59:01;15.27;;;6.30;;
3068;SDS011;1545;51.728;8.796;2023-07-09T08:01:27;17.17;;;6.00;;
3068;SDS011;1545;51.728;8.796;2023-07-09T08:03:53;12.68;;;5.93;;
3068;SDS011;1545;51.728;8.796;2023-07-09T08:06:18;12.32;;;6.13;;
3068;SDS011;1545;51.728;8.796;2023-07-09T08:08:44;11.50;;;6.20;;
3068;SDS011;1545;51.728;8.796;2023-07-09T08:11:09;8.82;;;6.43;;
3068;SDS011;1545;51.728;8.796;2023-07-09T08:13:35;10.85;;;6.28;;
3068;SDS011;1545;51.728;8.796;2023-07-09T08:16:01;10.60;;;6.30;;
3068;SDS011;1545;51.728;8.796;2023-07-09T08:18:27;13.15;;;6.45;;
3068;SDS011;1545;51.728;8.796;2023-07-09T08:20:52;14.20;;;6.80;;
3068;SDS011;1545;51.728;8.796;2023-07-09T08:23:18;13.25;;;6.60;;
3068;SDS011;1545;51.728;8.796;2023-07-09T08:25:44;13.65;;;6.30;;
3068;SDS011;1545;51.728;8.796;2023-07-09T08:28:16;14.43;;;6.25;;
3068;SDS011;1545;51.728;8.796;2023-07-09T08:30:42;13.90;;;6.60;;
3068;SDS011;1545;51.728;8.796;2023-07-09T08:33:07;11.15;;;5.93;;
3068;SDS011;1545;51.728;8.796;2023-07-09T08:35:33;10.90;;;6.72;;
3068;SDS011;1545;51.728;8.796;2023-07-09T08:37:58;11.75;;;6.70;;
3068;SDS011;1545;51.728;8.796;2023-07-09T08:40:24;12.57;;;6.50;;
3068;SDS011;1545;51.728;8.796;2023-07-09T08:42:49;11.38;;;6.72;;
3068;SDS011;1545;51.728;8.796;2023-07-09T08:45:28;9.55;;;6.43;;
3068;SDS011;1545;51.728;8.796;2023-07-09T08:48:14;13.50;;;6.90;;
3068;SDS011;1545;51.728;8.796;2023-07-09T08:50:46;19.05;;;6.85;;
3068;SDS011;1545;51.728;8.796;2023-07-09T08:53:20;13.73;;;6.97;;
3068;SDS011;1545;51.728;8.796;2023-07-09T08:55:58;12.02;;;7.05;;
3068;SDS011;1545;51.728;8.796;2023-07-09T08:58:25;13.82;;;6.88;;
3068;SDS011;1545;51.728;8.796;2023-07-09T09:00:56;12.40;;;7.30;;
3068;SDS011;1545;51.728;8.796;2023-07-09T09:03:27;20.17;;;8.05;;
3068;SDS011;1545;51.728;8.796;2023-07-09T09:06:12;15.02;;;7.07;;
3068;SDS011;1545;51.728;8.796;2023-07-09T09:11:43;12.82;;;6.82;;
3068;SDS011;1545;51.728;8.796;2023-07-09T09:16:55;16.92;;;6.82;;
3068;SDS011;1545;51.728;8.796;2023-07-09T09:19:22;19.15;;;6.18;;
3068;SDS011;1545;51.728;8.796;2023-07-09T09:22:02;14.20;;;7.30;;
3068;SDS011;1545;51.728;8.796;2023-07-09T09:24:38;13.45;;;7.32;;
3068;SDS011;1545;51.728;8.796;2023-07-09T09:27:13;9.50;;;6.60;;
3068;SDS011;1545;51.728;8.796;2023-07-09T09:29:38;7.90;;;6.32;;
3068;SDS011;1545;51.728;8.796;2023-07-09T09:32:15;11.18;;;7.07;;
3068;SDS011;1545;51.728;8.796;2023-07-09T09:34:41;16.17;;;7.25;;
3068;SDS011;1545;51.728;8.796;2023-07-09T09:37:09;11.15;;;6.82;;
3068;SDS011;1545;51.728;8.796;2023-07-09T09:39:39;12.65;;;7.00;;
3068;SDS011;1545;51.728;8.796;2023-07-09T09:42:09;14.70;;;6.50;;
3068;SDS011;1545;51.728;8.796;2023-07-09T09:44:42;14.65;;;7.10;;
3068;SDS011;1545;51.728;8.796;2023-07-09T09:47:10;13.48;;;6.90;;
3068;SDS011;1545;51.728;8.796;2023-07-09T09:49:39;14.35;;;6.47;;
3068;SDS011;1545;51.728;8.796;2023-07-09T09:52:15;15.55;;;6.90;;
3068;SDS011;1545;51.728;8.796;2023-07-09T09:54:49;11.00;;;6.80;;
3068;SDS011;1545;51.728;8.796;2023-07-09T09:57:19;13.68;;;6.72;;
3068;SDS011;1545;51.728;8.796;2023-07-09T09:59:49;12.95;;;7.18;;
3068;SDS011;1545;51.728;8.796;2023-07-09T10:02:19;13.02;;;7.05;;
3068;SDS011;1545;51.728;8.796;2023-07-09T10:04:49;14.90;;;7.10;;
3068;SDS011;1545;51.728;8.796;2023-07-09T10:07:24;10.93;;;6.53;;
3068;SDS011;1545;51.728;8.796;2023-07-09T10:09:57;13.60;;;7.15;;
3068;SDS011;1545;51.728;8.796;2023-07-09T10:12:29;11.82;;;7.07;;
3068;SDS011;1545;51.728;8.796;2023-07-09T10:23:47;17.08;;;8.15;;
3068;SDS011;1545;51.728;8.796;2023-07-09T10:26:47;16.30;;;8.18;;
3068;SDS011;1545;51.728;8.796;2023-07-09T10:34:32;22.00;;;9.10;;
3068;SDS011;1545;51.728;8.796;2023-07-09T10:40:08;17.58;;;9.05;;
3068;SDS011;1545;51.728;8.796;2023-07-09T10:42:42;20.60;;;8.07;;
3068;SDS011;1545;51.728;8.796;2023-07-09T10:45:12;15.60;;;8.80;;
3068;SDS011;1545;51.728;8.796;2023-07-09T10:47:41;17.40;;;9.15;;
3068;SDS011;1545;51.728;8.796;2023-07-09T10:50:12;21.98;;;9.20;;
3068;SDS011;1545;51.728;8.796;2023-07-09T10:52:44;18.90;;;9.32;;
3068;SDS011;1545;51.728;8.796;2023-07-09T10:55:25;16.73;;;8.30;;
3068;SDS011;1545;51.728;8.796;2023-07-09T10:58:27;18.73;;;9.10;;
3068;SDS011;1545;51.728;8.796;2023-07-09T11:01:02;20.63;;;8.90;;
3068;SDS011;1545;51.728;8.796;2023-07-09T11:03:34;20.40;;;9.23;;
3068;SDS011;1545;51.728;8.796;2023-07-09T11:06:00;15.48;;;8.73;;
3068;SDS011;1545;51.728;8.796;2023-07-09T11:08:37;18.33;;;9.07;;
3068;SDS011;1545;51.728;8.796;2023-07-09T11:11:06;15.98;;;8.65;;
3068;SDS011;1545;51.728;8.796;2023-07-09T11:14:04;15.40;;;8.30;;
3068;SDS011;1545;51.728;8.796;2023-07-09T11:16:38;16.83;;;8.80;;
3068;SDS011;1545;51.728;8.796;2023-07-09T11:19:05;28.80;;;8.93;;
3068;SDS011;1545;51.728;8.796;2023-07-09T11:21:40;14.02;;;8.52;;
3068;SDS011;1545;51.728;8.796;2023-07-09T11:27:24;13.05;;;8.00;;
3068;SDS011;1545;51.728;8.796;2023-07-09T11:32:46;19.60;;;9.10;;
3068;SDS011;1545;51.728;8.796;2023-07-09T11:35:19;16.23;;;8.35;;
3068;SDS011;1545;51.728;8.796;2023-07-09T11:37:46;18.08;;;8.55;;
3068;SDS011;1545;51.728;8.796;2023-07-09T11:40:12;18.73;;;8.80;;
3068;SDS011;1545;51.728;8.796;2023-07-09T11:42:47;12.63;;;8.10;;
3068;SDS011;1545;51.728;8.796;2023-07-09T11:45:15;25.73;;;8.15;;
3068;SDS011;1545;51.728;8.796;2023-07-09T11:48:27;24.83;;;8.32;;
3068;SDS011;1545;51.728;8.796;2023-07-09T11:50:50;20.52;;;9.10;;
3068;SDS011;1545;51.728;8.796;2023-07-09T11:55:54;16.88;;;8.00;;
3068;SDS011;1545;51.728;8.796;2023-07-09T11:58:19;13.68;;;8.23;;
3068;SDS011;1545;51.728;8.796;2023-07-09T12:03:15;21.02;;;8.40;;
3068;SDS011;1545;51.728;8.796;2023-07-09T12:06:00;19.75;;;9.23;;
3068;SDS011;1545;51.728;8.796;2023-07-09T12:08:38;16.85;;;8.60;;
3068;SDS011;1545;51.728;8.796;2023-07-09T12:11:06;13.98;;;8.07;;
3068;SDS011;1545;51.728;8.796;2023-07-09T12:13:42;16.33;;;8.35;;
3068;SDS011;1545;51.728;8.796;2023-07-09T12:16:19;13.30;;;8.00;;
3068;SDS011;1545;51.728;8.796;2023-07-09T12:18:50;24.73;;;8.07;;
3068;SDS011;1545;51.728;8.796;2023-07-09T12:21:16;15.45;;;8.60;;
3068;SDS011;1545;51.728;8.796;2023-07-09T12:23:42;17.23;;;8.63;;
3068;SDS011;1545;51.728;8.796;2023-07-09T12:26:15;20.00;;;8.45;;
3068;SDS011;1545;51.728;8.796;2023-07-09T12:28:42;10.20;;;7.45;;
3068;SDS011;1545;51.728;8.796;2023-07-09T12:31:12;16.27;;;8.30;;
3068;SDS011;1545;51.728;8.796;2023-07-09T12:33:46;14.52;;;7.80;;
3068;SDS011;1545;51.728;8.796;2023-07-09T12:36:14;16.92;;;8.15;;
3068;SDS011;1545;51.728;8.796;2023-07-09T12:38:42;14.55;;;8.18;;
3068;SDS011;1545;51.728;8.796;2023-07-09T12:41:16;17.83;;;8.82;;
3068;SDS011;1545;51.728;8.796;2023-07-09T12:43:48;12.57;;;7.70;;
3068;SDS011;1545;51.728;8.796;2023-07-09T12:46:15;21.05;;;8.18;;
3068;SDS011;1545;51.728;8.796;2023-07-09T12:48:41;17.67;;;8.65;;
3068;SDS011;1545;51.728;8.796;2023-07-09T12:51:08;16.40;;;7.50;;
3068;SDS011;1545;51.728;8.796;2023-07-09T12:53:36;15.43;;;8.18;;
3068;SDS011;1545;51.728;8.796;2023-07-09T12:56:02;19.67;;;8.05;;
3068;SDS011;1545;51.728;8.796;2023-07-09T12:58:36;11.73;;;7.57;;
3068;SDS011;1545;51.728;8.796;2023-07-09T13:01:07;20.90;;;7.68;;
3068;SDS011;1545;51.728;8.796;2023-07-09T13:03:38;18.77;;;8.27;;
3068;SDS011;1545;51.728;8.796;2023-07-09T13:06:04;17.60;;;8.32;;
3068;SDS011;1545;51.728;8.796;2023-07-09T13:08:33;13.43;;;8.02;;
3068;SDS011;1545;51.728;8.796;2023-07-09T13:11:16;23.35;;;7.90;;
3068;SDS011;1545;51.728;8.796;2023-07-09T13:13:53;19.25;;;8.57;;
3068;SDS011;1545;51.728;8.796;2023-07-09T13:16:24;22.60;;;8.80;;
3068;SDS011;1545;51.728;8.796;2023-07-09T13:18:50;16.17;;;8.43;;
3068;SDS011;1545;51.728;8.796;2023-07-09T13:21:16;23.17;;;8.45;;
3068;SDS011;1545;51.728;8.796;2023-07-09T13:23:43;13.95;;;7.93;;
3068;SDS011;1545;51.728;8.796;2023-07-09T13:26:09;15.18;;;8.32;;
3068;SDS011;1545;51.728;8.796;2023-07-09T13:28:34;19.95;;;9.05;;
3068;SDS011;1545;51.728;8.796;2023-07-09T13:31:01;17.90;;;7.70;;
3068;SDS011;1545;51.728;8.796;2023-07-09T13:33:36;19.25;;;7.82;;
3068;SDS011;1545;51.728;8.796;2023-07-09T13:36:02;25.92;;;8.45;;
3068;SDS011;1545;51.728;8.796;2023-07-09T13:38:28;12.13;;;7.47;;
3068;SDS011;1545;51.728;8.796;2023-07-09T13:40:59;18.40;;;8.20;;
3068;SDS011;1545;51.728;8.796;2023-07-09T13:43:30;14.98;;;7.90;;
3068;SDS011;1545;51.728;8.796;2023-07-09T13:45:58;17.33;;;7.82;;
3068;SDS011;1545;51.728;8.796;2023-07-09T13:48:26;27.23;;;8.23;;
3068;SDS011;1545;51.728;8.796;2023-07-09T13:50:53;15.45;;;7.70;;
3068;SDS011;1545;51.728;8.796;2023-07-09T13:53:21;18.30;;;8.63;;
3068;SDS011;1545;51.728;8.796;2023-07-09T13:55:48;12.88;;;7.50;;
3068;SDS011;1545;51.728;8.796;2023-07-09T13:58:16;13.98;;;7.68;;
3068;SDS011;1545;51.728;8.796;2023-07-09T14:00:43;19.05;;;8.77;;
3068;SDS011;1545;51.728;8.796;2023-07-09T14:03:12;16.40;;;8.10;;
3068;SDS011;1545;51.728;8.796;2023-07-09T14:05:44;15.05;;;8.45;;
3068;SDS011;1545;51.728;8.796;2023-07-09T14:08:10;21.83;;;9.55;;
3068;SDS011;1545;51.728;8.796;2023-07-09T14:10:36;18.50;;;8.43;;
3068;SDS011;1545;51.728;8.796;2023-07-09T14:13:02;14.07;;;8.13;;
3068;SDS011;1545;51.728;8.796;2023-07-09T14:15:28;16.52;;;8.60;;
3068;SDS011;1545;51.728;8.796;2023-07-09T14:17:54;14.20;;;8.57;;
3068;SDS011;1545;51.728;8.796;2023-07-09T14:20:23;19.95;;;8.68;;
3068;SDS011;1545;51.728;8.796;2023-07-09T14:22:49;15.63;;;8.73;;
3068;SDS011;1545;51.728;8.796;2023-07-09T14:25:19;21.90;;;9.48;;
3068;SDS011;1545;51.728;8.796;2023-07-09T14:27:49;17.50;;;8.77;;
3068;SDS011;1545;51.728;8.796;2023-07-09T14:30:16;13.73;;;8.68;;
3068;SDS011;1545;51.728;8.796;2023-07-09T14:32:44;15.60;;;8.65;;
3068;SDS011;1545;51.728;8.796;2023-07-09T14:35:16;14.60;;;8.75;;
3068;SDS011;1545;51.728;8.796;2023-07-09T14:37:47;18.20;;;8.30;;
3068;SDS011;1545;51.728;8.796;2023-07-09T14:40:14;20.42;;;8.68;;
3068;SDS011;1545;51.728;8.796;2023-07-09T14:42:42;23.00;;;8.40;;
3068;SDS011;1545;51.728;8.796;2023-07-09T14:45:15;17.63;;;9.20;;
3068;SDS011;1545;51.728;8.796;2023-07-09T14:47:44;25.25;;;9.30;;
3068;SDS011;1545;51.728;8.796;2023-07-09T14:50:09;14.50;;;8.85;;
3068;SDS011;1545;51.728;8.796;2023-07-09T14:52:35;22.65;;;9.65;;
3068;SDS011;1545;51.728;8.796;2023-07-09T14:55:01;20.67;;;8.90;;
3068;SDS011;1545;51.728;8.796;2023-07-09T14:57:28;20.17;;;9.43;;
3068;SDS011;1545;51.728;8.796;2023-07-09T14:59:55;17.20;;;9.20;;
3068;SDS011;1545;51.728;8.796;2023-07-09T15:04:50;19.63;;;9.20;;
3068;SDS011;1545;51.728;8.796;2023-07-09T15:07:16;16.27;;;8.52;;
3068;SDS011;1545;51.728;8.796;2023-07-09T15:09:41;14.65;;;8.68;;
3068;SDS011;1545;51.728;8.796;2023-07-09T15:12:12;14.13;;;8.50;;
3068;SDS011;1545;51.728;8.796;2023-07-09T15:14:49;18.90;;;9.23;;
3068;SDS011;1545;51.728;8.796;2023-07-09T15:17:14;14.88;;;8.70;;
3068;SDS011;1545;51.728;8.796;2023-07-09T15:19:40;16.75;;;9.15;;
3068;SDS011;1545;51.728;8.796;2023-07-09T15:22:09;23.35;;;9.48;;
3068;SDS011;1545;51.728;8.796;2023-07-09T15:24:48;16.42;;;9.30;;
3068;SDS011;1545;51.728;8.796;2023-07-09T15:27:14;19.95;;;8.98;;
3068;SDS011;1545;51.728;8.796;2023-07-09T15:29:39;23.08;;;9.02;;
3068;SDS011;1545;51.728;8.796;2023-07-09T15:32:05;21.90;;;9.60;;
3068;SDS011;1545;51.728;8.796;2023-07-09T15:34:31;14.77;;;8.25;;
3068;SDS011;1545;51.728;8.796;2023-07-09T15:36:57;18.73;;;8.82;;
3068;SDS011;1545;51.728;8.796;2023-07-09T15:39:22;17.50;;;8.75;;
3068;SDS011;1545;51.728;8.796;2023-07-09T15:41:48;14.73;;;8.52;;
3068;SDS011;1545;51.728;8.796;2023-07-09T15:44:14;23.92;;;8.85;;